Mercedita, PR

10:37 PM AST on September 20, 2014 (GMT -0400)
MACHUELO | Change Station
CLOSE
Current Station
Personal Weather Station
Location: Ponce, PONCE
Elevation: 128 ft
Nearby Weather Stations

Elev 128 ft 18.03 °N, 66.60 °W | Updated 9 seconds ago

Clear
Clear
80.4 °F
Feels Like 85 °F
N
3.1
Wind Variable Wind from West
Gusts 3.1 mph

Today
High -- | Low -- °F
--% Chance of Precip.
Yesterday
High -- | Low -- °F
Precip. -- in
6:14 AM 6:24 PM
Waning Crescent, 9% visible
Pressure 30.01 in
Visibility 10.0 miles
Clouds Clear
Heat Index 85 °F
Dew Point 74 °F
Humidity 80%
Rainfall 0.00 in
Snow Depth Not available.
UV 0 out of 12
Pollen Not available.
Air Quality Not available.
Flu Activity Not available.
METAR TJBQ 210050Z 11008KT 10SM SKC 26/23 A3001 RMK TOWER CLOSED 0100-1100Z

More Conditions Fewer Conditions

Pressure 30.01 in
Visibility 10.0 miles
Clouds Clear
Heat Index 85 °F
Dew Point 74 °F
Humidity 80%
Rainfall 0.00 in
Snow Depth Not available.
UV 0 out of 12
Pollen Not available.
Air Quality Not available.
Flu Activity Not available.
METAR TJBQ 210050Z 11008KT 10SM SKC 26/23 A3001 RMK TOWER CLOSED 0100-1100Z

More Conditions Fewer Conditions

10-Day Weather Forecast

Almanac

Astronomy

Sep. 20, 2014 Rise Set
Actual Time 6:14 AM AST 6:24 PM AST
Civil Twilight 5:53 AM AST 6:46 PM AST
Nautical Twilight 5:27 AM AST 7:11 PM AST
Astronomical Twilight 5:02 AM AST 7:36 PM AST
Moon 3:14 AM AST (9/20) 4:05 PM AST (9/20)
Length of Visible Light 12h 52m
Length of Day
12h 09m
Tomorrow will be 1m 1s shorter.
Waning Crescent, 9% of the Moon is Illuminated
Today
Waning Crescent
Sep 24
New
Oct 1
First Quarter
Oct 8
Full
Oct 15
Last Quarter

Community

WunderPhotos

Upload Photos

1,755,032 photos uploaded!

WunderBlogs® & News

Nearby

Snow Depth

Station Depth Elevation
No new snow has been reported.

Earthquake Activity

City Distance Mag. Time & Date
No recent earthquake activity has been reported nearby.
Minimum magnitude displayed is 2.5.

Coastal Water Temperatures

Place Temperature
Magueyes Islands, PR 84.9 °F
Yabucoa Harbor, PR 82.9 °F

Nearby Weather Stations